createdAt,value
2018-05-31T00:02:15.113Z,8.77
2018-05-31T00:04:43.405Z,9.02
2018-05-31T00:07:11.728Z,9.02
2018-05-31T00:09:39.249Z,8.55
2018-05-31T00:12:07.537Z,8.85
2018-05-31T00:14:35.864Z,8.55
2018-05-31T00:17:03.381Z,8.27
2018-05-31T00:19:30.916Z,8.32
2018-05-31T00:21:58.465Z,8.70
2018-05-31T00:24:26.006Z,8.25
2018-05-31T00:26:53.762Z,8.55
2018-05-31T00:29:21.318Z,9.13
2018-05-31T00:31:48.942Z,8.90
2018-05-31T00:34:16.467Z,8.18
2018-05-31T00:36:44.007Z,8.45
2018-05-31T00:39:11.529Z,8.65
2018-05-31T00:41:39.048Z,8.65
2018-05-31T00:44:06.595Z,8.95
2018-05-31T00:46:34.124Z,8.68
2018-05-31T00:49:01.662Z,9.07
2018-05-31T00:51:29.219Z,9.02
2018-05-31T00:53:56.748Z,8.95
2018-05-31T00:56:25.033Z,9.93
2018-05-31T00:58:52.588Z,10.40
2018-05-31T01:01:20.883Z,10.27
2018-05-31T01:03:49.165Z,11.07
2018-05-31T01:06:16.721Z,10.52
2018-05-31T01:08:45.031Z,11.73
2018-05-31T01:11:12.573Z,10.23
2018-05-31T01:13:40.892Z,10.27
2018-05-31T01:16:08.413Z,9.98
2018-05-31T01:18:36.738Z,9.77
2018-05-31T01:21:04.250Z,10.02
2018-05-31T01:23:32.555Z,10.30
2018-05-31T01:26:00.092Z,10.30
2018-05-31T01:28:27.689Z,9.88
2018-05-31T01:30:55.210Z,9.85
2018-05-31T01:33:23.547Z,9.75
2018-05-31T01:35:51.209Z,9.98
2018-05-31T01:38:31.497Z,11.05
2018-05-31T01:40:59.128Z,10.60
2018-05-31T01:43:26.665Z,10.70
2018-05-31T01:45:54.196Z,10.68
2018-05-31T01:48:21.745Z,10.50
2018-05-31T01:50:49.273Z,10.52
2018-05-31T01:53:16.818Z,10.32
2018-05-31T01:55:45.134Z,10.88
2018-05-31T01:58:12.666Z,11.20
2018-05-31T02:00:40.974Z,11.25
2018-05-31T02:03:08.556Z,10.70
2018-05-31T02:05:36.123Z,11.38
2018-05-31T02:08:03.677Z,11.23
2018-05-31T02:10:31.228Z,11.25
2018-05-31T02:12:58.757Z,11.38
2018-05-31T02:15:27.069Z,12.18
2018-05-31T02:17:54.629Z,11.35
2018-05-31T02:20:22.161Z,11.98
2018-05-31T02:22:49.685Z,11.60
2018-05-31T02:25:17.252Z,12.15
2018-05-31T02:27:44.773Z,11.60
2018-05-31T02:30:13.176Z,11.70
2018-05-31T02:32:40.725Z,12.05
2018-05-31T02:35:09.026Z,11.75
2018-05-31T02:37:36.565Z,12.88
2018-05-31T02:40:04.877Z,12.00
2018-05-31T02:42:32.414Z,11.40
2018-05-31T02:45:00.723Z,11.93
2018-05-31T02:47:28.279Z,12.00
2018-05-31T02:49:55.800Z,12.02
2018-05-31T02:52:23.322Z,11.77
2018-05-31T02:54:50.880Z,11.68
2018-05-31T02:57:18.421Z,11.80
2018-05-31T02:59:46.717Z,11.60
2018-05-31T03:02:14.270Z,11.88
2018-05-31T03:04:41.800Z,11.50
2018-05-31T03:07:09.352Z,11.82
2018-05-31T03:09:36.910Z,11.98
2018-05-31T03:12:04.456Z,12.52
2018-05-31T03:14:32.037Z,13.77
2018-05-31T03:16:59.602Z,13.62
2018-05-31T03:19:27.145Z,12.00
2018-05-31T03:21:54.685Z,12.07
2018-05-31T03:24:22.260Z,12.35
2018-05-31T03:26:49.830Z,12.77
2018-05-31T03:29:17.368Z,12.48
2018-05-31T03:31:45.769Z,13.05
2018-05-31T03:34:13.310Z,12.77
2018-05-31T03:36:40.837Z,12.25
2018-05-31T03:39:08.410Z,12.18
2018-05-31T03:41:35.933Z,12.27
2018-05-31T03:44:03.467Z,11.73
2018-05-31T03:46:31.785Z,11.93
2018-05-31T03:48:59.300Z,12.23
2018-05-31T03:51:28.329Z,11.77
2018-05-31T03:53:56.662Z,13.13
2018-05-31T03:56:24.194Z,12.18
2018-05-31T03:58:52.492Z,13.23
2018-05-31T04:01:20.154Z,13.73
2018-05-31T04:03:48.541Z,12.52
2018-05-31T04:06:16.082Z,12.65
2018-05-31T04:08:43.675Z,12.95
2018-05-31T04:11:11.216Z,12.63
2018-05-31T04:13:38.753Z,12.32
2018-05-31T04:16:07.084Z,12.63
2018-05-31T04:18:34.695Z,12.32
2018-05-31T04:21:02.235Z,12.73
2018-05-31T04:23:29.807Z,13.18
2018-05-31T04:25:57.350Z,13.35
2018-05-31T04:28:24.876Z,13.38
2018-05-31T04:30:53.203Z,13.48
2018-05-31T04:33:20.909Z,12.70
2018-05-31T04:35:49.204Z,13.77
2018-05-31T04:38:17.517Z,13.80
2018-05-31T04:40:45.042Z,14.20
2018-05-31T04:43:13.338Z,13.38
2018-05-31T04:45:41.654Z,12.55
2018-05-31T04:48:09.184Z,12.93
2018-05-31T04:50:36.716Z,13.70
2018-05-31T04:53:04.272Z,13.23
2018-05-31T04:55:31.814Z,12.88
2018-05-31T04:57:59.346Z,14.18
2018-05-31T05:00:26.935Z,13.80
2018-05-31T05:02:54.515Z,14.07
2018-05-31T05:05:22.021Z,14.20
2018-05-31T05:07:50.360Z,14.27
2018-05-31T05:10:17.897Z,13.57
2018-05-31T05:12:45.453Z,14.87
2018-05-31T05:15:12.999Z,14.45
2018-05-31T05:17:41.293Z,14.20
2018-05-31T05:20:08.834Z,14.45
2018-05-31T05:22:37.172Z,13.15
2018-05-31T05:25:04.718Z,13.40
2018-05-31T05:27:32.278Z,14.38
2018-05-31T05:30:00.606Z,13.23
2018-05-31T05:32:28.147Z,12.60
2018-05-31T05:34:55.860Z,13.02
2018-05-31T05:37:24.176Z,13.15
2018-05-31T05:39:51.709Z,13.20
2018-05-31T05:42:20.016Z,13.68
2018-05-31T05:44:47.579Z,13.30
2018-05-31T05:47:15.107Z,13.77
2018-05-31T05:49:42.637Z,14.27
2018-05-31T05:52:10.291Z,14.57
2018-05-31T05:54:37.813Z,14.65
2018-05-31T05:57:06.127Z,13.70
2018-05-31T05:59:33.681Z,12.45
2018-05-31T06:02:01.210Z,13.45
2018-05-31T06:04:28.754Z,13.18
2018-05-31T06:06:56.298Z,13.35
2018-05-31T06:09:23.857Z,12.98
2018-05-31T06:11:51.427Z,13.00
2018-05-31T06:14:18.981Z,12.77
2018-05-31T06:16:46.521Z,12.02
2018-05-31T06:19:14.832Z,12.27
2018-05-31T06:21:42.389Z,12.05
2018-05-31T06:24:09.938Z,12.07
2018-05-31T06:26:38.225Z,12.07
2018-05-31T06:29:06.539Z,11.10
2018-05-31T06:31:34.073Z,12.37
2018-05-31T06:34:02.385Z,13.15
2018-05-31T06:36:30.023Z,12.63
2018-05-31T06:38:58.339Z,11.55
2018-05-31T06:41:25.893Z,11.02
2018-05-31T06:43:53.437Z,10.90
2018-05-31T06:46:21.712Z,10.57
2018-05-31T06:48:50.227Z,10.65
2018-05-31T06:51:17.787Z,10.60
2018-05-31T06:53:45.293Z,9.40
2018-05-31T06:56:12.810Z,9.50
2018-05-31T06:58:40.406Z,9.35
2018-05-31T07:01:08.659Z,8.70
2018-05-31T07:03:36.177Z,9.70
2018-05-31T07:06:03.726Z,9.77
2018-05-31T07:08:31.256Z,8.63
2018-05-31T07:10:59.542Z,7.70
2018-05-31T07:13:27.076Z,8.98
2018-05-31T07:15:55.355Z,8.85
2018-05-31T07:18:23.645Z,7.60
2018-05-31T07:20:51.934Z,8.20
2018-05-31T07:23:19.450Z,7.10
2018-05-31T07:25:46.974Z,7.65
2018-05-31T07:28:15.291Z,7.43
2018-05-31T07:30:42.812Z,7.05
2018-05-31T07:33:10.328Z,7.28
2018-05-31T07:35:37.921Z,7.53
2018-05-31T07:38:06.384Z,6.10
2018-05-31T07:40:34.006Z,7.30
2018-05-31T07:43:01.561Z,7.12
2018-05-31T07:45:29.119Z,6.70
2018-05-31T07:47:56.625Z,6.45
2018-05-31T07:50:24.164Z,7.20
2018-05-31T07:52:51.695Z,6.65
2018-05-31T07:55:20.003Z,7.47
2018-05-31T07:57:47.536Z,7.18
2018-05-31T08:00:15.804Z,6.72
2018-05-31T08:02:43.325Z,6.43
2018-05-31T08:05:10.860Z,6.87
2018-05-31T08:07:39.149Z,6.87
2018-05-31T08:10:06.679Z,6.72
2018-05-31T08:12:34.292Z,7.05
2018-05-31T08:15:01.803Z,7.07
2018-05-31T08:17:30.098Z,6.65
2018-05-31T08:19:57.642Z,5.80
2018-05-31T08:22:25.166Z,5.68
2018-05-31T08:24:52.689Z,6.07
2018-05-31T08:27:21.076Z,5.65
2018-05-31T08:29:49.383Z,6.12
2018-05-31T08:32:16.988Z,5.82
2018-05-31T08:34:44.518Z,5.85
2018-05-31T08:37:12.086Z,5.78
2018-05-31T08:39:39.656Z,5.40
2018-05-31T08:42:07.214Z,5.70
2018-05-31T08:44:34.735Z,5.12
2018-05-31T08:47:02.252Z,4.95
2018-05-31T08:49:29.791Z,4.82
2018-05-31T08:51:57.307Z,4.60
2018-05-31T08:54:24.826Z,5.47
2018-05-31T08:56:52.395Z,5.35
2018-05-31T08:59:19.894Z,5.65
2018-05-31T09:01:47.438Z,4.60
2018-05-31T09:04:14.974Z,5.37
2018-05-31T09:06:42.497Z,5.43
2018-05-31T09:09:10.017Z,4.97
2018-05-31T09:11:37.567Z,5.10
2018-05-31T09:14:05.085Z,5.12
2018-05-31T09:16:32.598Z,5.22
2018-05-31T09:19:00.133Z,5.20
2018-05-31T09:21:27.647Z,5.35
2018-05-31T09:23:55.163Z,5.20
2018-05-31T09:26:23.490Z,5.25
2018-05-31T09:28:51.006Z,5.03
2018-05-31T09:31:19.285Z,5.07
2018-05-31T09:33:46.845Z,5.10
2018-05-31T09:36:14.397Z,5.10
2018-05-31T09:38:41.947Z,5.50
2018-05-31T09:41:09.606Z,4.80
2018-05-31T09:43:37.171Z,5.10
2018-05-31T09:46:04.693Z,4.75
2018-05-31T09:48:33.007Z,4.60
2018-05-31T09:51:00.525Z,4.50
2018-05-31T09:53:28.815Z,4.40
2018-05-31T09:55:57.114Z,4.30
2018-05-31T09:58:24.637Z,4.82
2018-05-31T10:00:52.160Z,4.78
2018-05-31T10:03:19.692Z,5.00
2018-05-31T10:05:47.965Z,5.25
2018-05-31T10:08:16.237Z,4.35
2018-05-31T10:10:43.828Z,4.70
2018-05-31T10:13:11.331Z,4.53
2018-05-31T10:15:38.845Z,4.82
2018-05-31T10:18:07.190Z,4.40
2018-05-31T10:20:34.717Z,4.90
2018-05-31T10:23:02.233Z,4.72
2018-05-31T10:25:31.274Z,4.62
2018-05-31T10:27:58.790Z,4.40
2018-05-31T10:30:26.292Z,4.55
2018-05-31T10:32:53.825Z,4.28
2018-05-31T10:35:21.346Z,4.57
2018-05-31T10:37:48.865Z,4.40
2018-05-31T10:40:17.177Z,4.10
2018-05-31T10:42:44.758Z,4.28
2018-05-31T10:45:12.264Z,5.32
2018-05-31T10:47:41.312Z,4.55
2018-05-31T10:50:08.837Z,4.80
2018-05-31T10:52:37.158Z,4.22
2018-05-31T10:55:04.688Z,4.10
2018-05-31T10:57:33.023Z,4.82
2018-05-31T11:00:00.514Z,4.80
2018-05-31T11:02:28.052Z,4.90
2018-05-31T11:04:55.595Z,4.95
2018-05-31T11:07:23.112Z,4.30
2018-05-31T11:09:50.719Z,4.80
2018-05-31T11:12:18.253Z,4.32
2018-05-31T11:14:46.525Z,3.80
2018-05-31T11:17:14.065Z,3.60
2018-05-31T11:19:41.582Z,3.97
2018-05-31T11:22:09.114Z,3.90
2018-05-31T11:24:36.661Z,3.97
2018-05-31T11:27:04.174Z,3.90
2018-05-31T11:29:32.449Z,4.40
2018-05-31T11:32:00.744Z,3.97
2018-05-31T11:34:28.269Z,4.68
2018-05-31T11:36:55.780Z,4.00
2018-05-31T11:39:23.327Z,3.95
2018-05-31T11:41:50.846Z,4.22
2018-05-31T11:44:18.464Z,4.18
2018-05-31T11:46:45.989Z,4.53
2018-05-31T11:49:13.499Z,3.75
2018-05-31T11:51:41.018Z,3.80
2018-05-31T11:54:08.628Z,3.92
2018-05-31T11:56:36.140Z,4.10
2018-05-31T11:59:03.669Z,3.42
2018-05-31T12:01:31.222Z,3.53
2018-05-31T12:03:58.777Z,3.87
2018-05-31T12:06:26.367Z,3.70
2018-05-31T12:08:53.912Z,3.60
2018-05-31T12:11:21.429Z,3.65
2018-05-31T12:13:48.938Z,3.90
2018-05-31T12:16:16.503Z,4.00
2018-05-31T12:18:44.055Z,3.85
2018-05-31T12:21:12.330Z,3.80
2018-05-31T12:23:40.629Z,3.97
2018-05-31T12:26:08.142Z,3.72
2018-05-31T12:28:35.658Z,4.10
2018-05-31T12:31:03.188Z,3.90
2018-05-31T12:33:30.784Z,3.78
2018-05-31T12:35:58.304Z,3.85
2018-05-31T12:38:25.829Z,3.92
2018-05-31T12:40:53.338Z,3.78
2018-05-31T12:43:20.849Z,3.87
2018-05-31T12:45:48.413Z,4.05
2018-05-31T12:48:15.940Z,4.53
2018-05-31T12:50:44.217Z,4.20
2018-05-31T12:53:11.838Z,4.15
2018-05-31T12:55:39.361Z,4.07
2018-05-31T12:58:07.659Z,4.05
2018-05-31T13:00:35.227Z,5.00
2018-05-31T13:03:02.754Z,5.28
2018-05-31T13:05:30.400Z,5.18
2018-05-31T13:07:57.903Z,5.32
2018-05-31T13:10:26.186Z,5.20
2018-05-31T13:12:54.509Z,5.60
2018-05-31T13:15:22.026Z,5.00
2018-05-31T13:17:50.314Z,5.47
2018-05-31T13:20:18.617Z,5.43
2018-05-31T13:22:47.006Z,5.00
2018-05-31T13:25:14.545Z,5.18
2018-05-31T13:27:42.061Z,5.32
2018-05-31T13:30:09.599Z,5.15
2018-05-31T13:32:37.102Z,5.65
2018-05-31T13:35:06.272Z,6.07
2018-05-31T13:37:33.809Z,6.82
2018-05-31T13:40:02.090Z,6.95
2018-05-31T13:42:30.356Z,5.87
2018-05-31T13:44:58.682Z,6.40
2018-05-31T13:47:26.401Z,6.80
2018-05-31T13:49:54.682Z,7.05
2018-05-31T13:52:22.998Z,7.12
2018-05-31T13:54:50.545Z,7.30
2018-05-31T13:57:18.833Z,7.10
2018-05-31T13:59:46.371Z,6.85
2018-05-31T14:02:13.878Z,7.12
2018-05-31T14:04:41.385Z,6.90
2018-05-31T14:07:10.425Z,7.10
2018-05-31T14:09:37.998Z,6.82
2018-05-31T14:12:05.570Z,6.35
2018-05-31T14:14:33.130Z,6.70
2018-05-31T14:17:00.660Z,7.12
2018-05-31T14:19:28.933Z,6.72
2018-05-31T14:21:56.485Z,6.53
2018-05-31T14:24:24.070Z,6.07
2018-05-31T14:26:52.359Z,6.55
2018-05-31T14:29:20.667Z,6.40
2018-05-31T14:31:48.186Z,6.68
2018-05-31T14:34:16.472Z,6.47
2018-05-31T14:36:45.521Z,6.80
2018-05-31T14:39:13.055Z,6.15
2018-05-31T14:41:40.575Z,6.70
2018-05-31T14:44:08.126Z,6.22
2018-05-31T14:46:35.641Z,6.05
2018-05-31T14:49:04.057Z,6.25
2018-05-31T14:51:31.578Z,6.12
2018-05-31T14:53:59.102Z,6.87
2018-05-31T14:56:27.387Z,6.75
2018-05-31T14:58:54.918Z,6.90
2018-05-31T15:01:22.492Z,6.78
2018-05-31T15:03:50.018Z,7.50
2018-05-31T15:06:18.321Z,7.22
2018-05-31T15:08:45.863Z,7.47
2018-05-31T15:11:14.237Z,7.35
2018-05-31T15:13:42.572Z,7.20
2018-05-31T15:16:10.089Z,6.68
2018-05-31T15:18:37.606Z,7.57
2018-05-31T15:21:05.136Z,6.45
2018-05-31T15:23:33.410Z,5.55
2018-05-31T15:26:01.692Z,6.15
2018-05-31T15:28:29.988Z,7.28
2018-05-31T15:30:57.524Z,6.78
2018-05-31T15:33:25.800Z,7.05
2018-05-31T15:35:54.877Z,6.78
2018-05-31T15:38:23.153Z,6.15
2018-05-31T15:40:50.692Z,7.05
2018-05-31T15:43:18.237Z,6.78
2018-05-31T15:45:45.757Z,6.85
2018-05-31T15:48:14.064Z,6.28
2018-05-31T15:50:41.750Z,6.30
2018-05-31T15:53:10.026Z,6.18
2018-05-31T15:55:38.305Z,6.35
2018-05-31T15:58:05.835Z,6.35
2018-05-31T16:00:33.363Z,5.50
2018-05-31T16:03:00.872Z,5.78
2018-05-31T16:05:29.289Z,5.97
2018-05-31T16:07:56.825Z,5.62
2018-05-31T16:10:24.340Z,5.75
2018-05-31T16:12:51.895Z,6.18
2018-05-31T16:15:19.419Z,6.22
2018-05-31T16:17:46.941Z,6.37
2018-05-31T16:20:14.480Z,6.12
2018-05-31T16:22:42.006Z,5.47
2018-05-31T16:25:09.561Z,6.05
2018-05-31T16:27:37.111Z,6.22
2018-05-31T16:30:04.624Z,5.50
2018-05-31T16:32:32.918Z,5.95
2018-05-31T16:35:00.569Z,5.45
2018-05-31T16:37:28.133Z,6.00
2018-05-31T16:39:56.422Z,6.12
2018-05-31T16:42:24.729Z,5.93
2018-05-31T16:44:52.936Z,6.30
2018-05-31T16:47:20.449Z,6.10
2018-05-31T16:49:48.757Z,6.37
2018-05-31T16:52:16.404Z,5.78
2018-05-31T16:54:44.683Z,6.18
2018-05-31T16:57:12.246Z,6.50
2018-05-31T16:59:39.779Z,6.57
2018-05-31T17:02:07.288Z,6.68
2018-05-31T17:04:34.846Z,7.15
2018-05-31T17:07:03.093Z,6.28
2018-05-31T17:09:31.381Z,6.15
2018-05-31T17:11:59.733Z,6.20
2018-05-31T17:14:27.281Z,6.70
2018-05-31T17:16:54.803Z,6.28
2018-05-31T17:19:22.399Z,7.12
2018-05-31T17:21:50.181Z,6.78
2018-05-31T17:24:17.934Z,6.70
2018-05-31T17:26:45.486Z,6.82
2018-05-31T17:29:13.006Z,7.65
2018-05-31T17:31:40.516Z,6.72
2018-05-31T17:34:08.072Z,7.00
2018-05-31T17:36:36.350Z,6.87
2018-05-31T17:39:05.437Z,6.97
2018-05-31T17:41:33.743Z,7.40
2018-05-31T17:44:01.270Z,6.78
2018-05-31T17:46:28.807Z,7.10
2018-05-31T17:48:56.354Z,6.82
2018-05-31T17:51:23.874Z,6.55
2018-05-31T17:53:52.293Z,6.43
2018-05-31T17:56:19.851Z,6.80
2018-05-31T17:58:47.368Z,6.72
2018-05-31T18:01:14.894Z,6.40
2018-05-31T18:03:42.448Z,6.47
2018-05-31T18:06:09.962Z,6.82
2018-05-31T18:08:37.487Z,7.30
2018-05-31T18:11:05.027Z,7.12
2018-05-31T18:13:32.555Z,7.57
2018-05-31T18:16:01.653Z,6.50
2018-05-31T18:18:29.177Z,6.82
2018-05-31T18:20:56.705Z,7.07
2018-05-31T18:23:24.988Z,7.20
2018-05-31T18:25:52.519Z,6.97
2018-05-31T18:28:20.034Z,6.90
2018-05-31T18:30:47.707Z,7.25
2018-05-31T18:33:15.287Z,7.25
2018-05-31T18:35:42.803Z,7.00
2018-05-31T18:38:11.077Z,6.90
2018-05-31T18:40:38.613Z,7.32
2018-05-31T18:43:06.133Z,6.78
2018-05-31T18:45:33.654Z,7.05
2018-05-31T18:48:01.200Z,7.30
2018-05-31T18:50:28.785Z,7.22
2018-05-31T18:52:56.329Z,6.95
2018-05-31T18:55:24.314Z,7.25
2018-05-31T18:57:51.829Z,7.95
2018-05-31T19:00:19.365Z,7.32
2018-05-31T19:02:46.908Z,7.10
2018-05-31T19:05:14.441Z,7.65
2018-05-31T19:07:41.951Z,8.07
2018-05-31T19:10:09.561Z,6.95
2018-05-31T19:12:42.779Z,7.07
2018-05-31T19:15:10.337Z,7.87
2018-05-31T19:17:37.887Z,7.50
2018-05-31T19:20:05.424Z,7.32
2018-05-31T19:22:33.729Z,7.43
2018-05-31T19:25:06.833Z,7.32
2018-05-31T19:27:34.390Z,6.78
2018-05-31T19:30:20.702Z,6.85
2018-05-31T19:32:48.230Z,6.80
2018-05-31T19:35:32.530Z,6.40
2018-05-31T19:38:00.075Z,6.85
2018-05-31T19:40:27.593Z,6.78
2018-05-31T19:43:00.914Z,6.40
2018-05-31T19:45:28.529Z,6.30
2018-05-31T19:47:56.050Z,6.22
2018-05-31T19:50:23.604Z,5.85
2018-05-31T19:52:56.865Z,5.93
2018-05-31T19:55:24.459Z,5.97
2018-05-31T19:57:57.713Z,5.90
2018-05-31T20:00:31.162Z,5.78
2018-05-31T20:03:04.421Z,6.00
2018-05-31T20:05:31.966Z,6.35
2018-05-31T20:07:59.498Z,7.20
2018-05-31T20:10:27.012Z,7.00
2018-05-31T20:12:54.549Z,6.10
2018-05-31T20:15:22.064Z,6.55
2018-05-31T20:17:49.582Z,6.35
2018-05-31T20:20:17.124Z,7.07
2018-05-31T20:22:44.651Z,6.15
2018-05-31T20:25:12.156Z,6.30
2018-05-31T20:27:39.774Z,6.95
2018-05-31T20:30:08.066Z,6.30
2018-05-31T20:32:35.664Z,6.22
2018-05-31T20:35:03.157Z,6.20
2018-05-31T20:37:30.744Z,6.47
2018-05-31T20:39:59.025Z,5.95
2018-05-31T20:42:27.341Z,6.28
2018-05-31T20:44:54.852Z,6.12
2018-05-31T20:47:22.360Z,5.85
2018-05-31T20:49:49.901Z,6.35
2018-05-31T20:52:18.209Z,6.00
2018-05-31T20:54:45.817Z,6.57
2018-05-31T20:57:13.565Z,6.72
2018-05-31T20:59:41.096Z,6.32
2018-05-31T21:02:08.620Z,6.40
2018-05-31T21:04:36.151Z,6.35
2018-05-31T21:07:03.658Z,6.65
2018-05-31T21:09:31.198Z,6.85
2018-05-31T21:11:58.760Z,6.55
2018-05-31T21:14:26.279Z,6.93
2018-05-31T21:16:53.789Z,6.72
2018-05-31T21:19:21.398Z,6.93
2018-05-31T21:21:49.706Z,6.40
2018-05-31T21:24:17.242Z,6.53
2018-05-31T21:26:45.551Z,6.65
2018-05-31T21:29:13.179Z,7.25
2018-05-31T21:31:40.693Z,6.47
2018-05-31T21:34:08.232Z,6.35
2018-05-31T21:36:36.501Z,6.40
2018-05-31T21:39:05.569Z,6.10
2018-05-31T21:41:33.115Z,6.82
2018-05-31T21:44:00.618Z,6.30
2018-05-31T21:46:28.128Z,6.55
2018-05-31T21:48:55.662Z,7.00
2018-05-31T21:51:23.953Z,7.20
2018-05-31T21:53:51.461Z,6.78
2018-05-31T21:56:19.005Z,6.25
2018-05-31T21:58:47.439Z,6.28
2018-05-31T22:01:14.957Z,6.10
2018-05-31T22:03:42.482Z,6.20
2018-05-31T22:06:10.750Z,6.10
2018-05-31T22:08:38.258Z,6.15
2018-05-31T22:11:05.781Z,5.87
2018-05-31T22:13:34.044Z,6.10
2018-05-31T22:16:01.553Z,6.12
2018-05-31T22:18:29.097Z,5.80
2018-05-31T22:20:57.372Z,5.43
2018-05-31T22:23:25.655Z,5.47
2018-05-31T22:25:53.962Z,6.00
2018-05-31T22:28:21.485Z,5.93
2018-05-31T22:30:49.005Z,5.80
2018-05-31T22:33:16.536Z,5.95
2018-05-31T22:35:44.817Z,5.95
2018-05-31T22:38:14.269Z,5.85
2018-05-31T22:40:42.593Z,5.70
2018-05-31T22:43:10.115Z,5.47
2018-05-31T22:45:37.660Z,5.95
2018-05-31T22:48:05.201Z,5.90
2018-05-31T22:50:33.477Z,5.60
2018-05-31T22:53:01.754Z,5.93
2018-05-31T22:55:30.058Z,5.32
2018-05-31T22:57:57.594Z,5.70
2018-05-31T23:00:25.959Z,5.10
2018-05-31T23:02:53.513Z,4.82
2018-05-31T23:05:21.026Z,4.70
2018-05-31T23:07:48.546Z,5.12
2018-05-31T23:10:16.089Z,5.35
2018-05-31T23:12:43.598Z,5.18
2018-05-31T23:15:11.865Z,4.82
2018-05-31T23:17:39.396Z,5.40
2018-05-31T23:20:06.915Z,5.07
2018-05-31T23:22:35.181Z,4.87
2018-05-31T23:25:02.729Z,5.82
2018-05-31T23:27:30.243Z,5.30
2018-05-31T23:29:57.765Z,5.10
2018-05-31T23:32:25.293Z,5.32
2018-05-31T23:34:52.811Z,4.95
2018-05-31T23:37:21.092Z,5.28
2018-05-31T23:39:49.401Z,5.85
2018-05-31T23:42:17.704Z,5.55
2018-05-31T23:44:45.939Z,6.25
2018-05-31T23:47:14.244Z,5.72
2018-05-31T23:49:41.753Z,5.72
2018-05-31T23:52:09.268Z,5.97
2018-05-31T23:54:36.801Z,6.15
2018-05-31T23:57:05.076Z,5.35
2018-05-31T23:59:32.595Z,6.20
